sensor_id;sensor_type;location;lat;lon;timestamp;P1;durP1;ratioP1;P2;durP2;ratioP2
7171;SDS011;3627;46.544;14.944;2023-03-24T00:01:26;24.25;;;14.02;;
7171;SDS011;3627;46.544;14.944;2023-03-24T00:03:52;19.08;;;13.27;;
7171;SDS011;3627;46.544;14.944;2023-03-24T00:06:18;14.07;;;11.20;;
7171;SDS011;3627;46.544;14.944;2023-03-24T00:08:46;13.43;;;10.32;;
7171;SDS011;3627;46.544;14.944;2023-03-24T00:11:13;12.75;;;9.93;;
7171;SDS011;3627;46.544;14.944;2023-03-24T00:13:42;12.20;;;9.35;;
7171;SDS011;3627;46.544;14.944;2023-03-24T00:16:13;15.73;;;10.38;;
7171;SDS011;3627;46.544;14.944;2023-03-24T00:18:41;13.63;;;10.55;;
7171;SDS011;3627;46.544;14.944;2023-03-24T00:21:07;13.90;;;10.77;;
7171;SDS011;3627;46.544;14.944;2023-03-24T00:23:35;13.35;;;10.35;;
7171;SDS011;3627;46.544;14.944;2023-03-24T00:26:03;11.57;;;9.23;;
7171;SDS011;3627;46.544;14.944;2023-03-24T00:28:29;9.80;;;8.13;;
7171;SDS011;3627;46.544;14.944;2023-03-24T00:30:57;11.77;;;8.10;;
7171;SDS011;3627;46.544;14.944;2023-03-24T00:33:25;9.13;;;7.63;;
7171;SDS011;3627;46.544;14.944;2023-03-24T00:35:51;8.43;;;7.13;;
7171;SDS011;3627;46.544;14.944;2023-03-24T00:38:18;9.90;;;7.53;;
7171;SDS011;3627;46.544;14.944;2023-03-24T00:40:44;11.85;;;7.63;;
7171;SDS011;3627;46.544;14.944;2023-03-24T00:43:12;11.95;;;7.80;;
7171;SDS011;3627;46.544;14.944;2023-03-24T00:45:39;14.18;;;8.55;;
7171;SDS011;3627;46.544;14.944;2023-03-24T00:48:10;10.13;;;7.93;;
7171;SDS011;3627;46.544;14.944;2023-03-24T00:50:38;11.10;;;7.80;;
7171;SDS011;3627;46.544;14.944;2023-03-24T00:53:05;9.95;;;7.80;;
7171;SDS011;3627;46.544;14.944;2023-03-24T00:55:32;9.20;;;7.22;;
7171;SDS011;3627;46.544;14.944;2023-03-24T00:58:01;8.85;;;7.35;;
7171;SDS011;3627;46.544;14.944;2023-03-24T01:00:28;8.02;;;7.10;;
7171;SDS011;3627;46.544;14.944;2023-03-24T01:02:55;9.27;;;7.53;;
7171;SDS011;3627;46.544;14.944;2023-03-24T01:05:22;11.38;;;7.40;;
7171;SDS011;3627;46.544;14.944;2023-03-24T01:07:51;10.10;;;7.07;;
7171;SDS011;3627;46.544;14.944;2023-03-24T01:10:18;10.45;;;8.20;;
7171;SDS011;3627;46.544;14.944;2023-03-24T01:12:45;12.35;;;9.30;;
7171;SDS011;3627;46.544;14.944;2023-03-24T01:15:13;12.43;;;8.82;;
7171;SDS011;3627;46.544;14.944;2023-03-24T01:17:40;14.27;;;9.55;;
7171;SDS011;3627;46.544;14.944;2023-03-24T01:20:07;14.25;;;8.25;;
7171;SDS011;3627;46.544;14.944;2023-03-24T01:22:36;9.32;;;8.10;;
7171;SDS011;3627;46.544;14.944;2023-03-24T01:25:06;8.57;;;7.47;;
7171;SDS011;3627;46.544;14.944;2023-03-24T01:27:33;13.77;;;7.85;;
7171;SDS011;3627;46.544;14.944;2023-03-24T01:30:00;9.82;;;7.45;;
7171;SDS011;3627;46.544;14.944;2023-03-24T01:32:28;10.95;;;8.13;;
7171;SDS011;3627;46.544;14.944;2023-03-24T01:34:54;14.18;;;8.52;;
7171;SDS011;3627;46.544;14.944;2023-03-24T01:37:20;13.05;;;8.82;;
7171;SDS011;3627;46.544;14.944;2023-03-24T01:39:48;9.23;;;8.07;;
7171;SDS011;3627;46.544;14.944;2023-03-24T01:42:17;10.38;;;7.60;;
7171;SDS011;3627;46.544;14.944;2023-03-24T01:44:44;8.95;;;7.97;;
7171;SDS011;3627;46.544;14.944;2023-03-24T01:47:11;9.98;;;7.70;;
7171;SDS011;3627;46.544;14.944;2023-03-24T01:49:42;9.52;;;7.68;;
7171;SDS011;3627;46.544;14.944;2023-03-24T01:52:15;8.05;;;7.20;;
7171;SDS011;3627;46.544;14.944;2023-03-24T01:54:44;9.38;;;7.20;;
7171;SDS011;3627;46.544;14.944;2023-03-24T01:57:12;9.27;;;8.07;;
7171;SDS011;3627;46.544;14.944;2023-03-24T01:59:42;9.48;;;7.75;;
7171;SDS011;3627;46.544;14.944;2023-03-24T02:02:09;17.88;;;8.00;;
7171;SDS011;3627;46.544;14.944;2023-03-24T02:04:39;8.93;;;8.02;;
7171;SDS011;3627;46.544;14.944;2023-03-24T02:07:07;10.88;;;8.25;;
7171;SDS011;3627;46.544;14.944;2023-03-24T02:09:35;9.80;;;7.22;;
7171;SDS011;3627;46.544;14.944;2023-03-24T02:12:02;9.23;;;8.32;;
7171;SDS011;3627;46.544;14.944;2023-03-24T02:14:28;10.48;;;8.30;;
7171;SDS011;3627;46.544;14.944;2023-03-24T02:17:10;7.88;;;7.07;;
7171;SDS011;3627;46.544;14.944;2023-03-24T02:20:01;9.23;;;7.30;;
7171;SDS011;3627;46.544;14.944;2023-03-24T02:22:46;9.75;;;7.45;;
7171;SDS011;3627;46.544;14.944;2023-03-24T02:25:27;10.52;;;7.03;;
7171;SDS011;3627;46.544;14.944;2023-03-24T02:28:09;9.15;;;7.50;;
7171;SDS011;3627;46.544;14.944;2023-03-24T02:30:42;9.88;;;7.22;;
7171;SDS011;3627;46.544;14.944;2023-03-24T02:38:55;10.23;;;7.55;;
7171;SDS011;3627;46.544;14.944;2023-03-24T02:41:26;8.55;;;7.60;;
7171;SDS011;3627;46.544;14.944;2023-03-24T02:43:55;9.20;;;7.70;;
7171;SDS011;3627;46.544;14.944;2023-03-24T02:46:25;8.20;;;6.97;;
7171;SDS011;3627;46.544;14.944;2023-03-24T02:48:58;8.10;;;7.30;;
7171;SDS011;3627;46.544;14.944;2023-03-24T02:51:29;10.30;;;7.00;;
7171;SDS011;3627;46.544;14.944;2023-03-24T02:53:58;8.70;;;7.22;;
7171;SDS011;3627;46.544;14.944;2023-03-24T02:56:31;11.88;;;7.38;;
7171;SDS011;3627;46.544;14.944;2023-03-24T02:59:02;8.60;;;7.75;;
7171;SDS011;3627;46.544;14.944;2023-03-24T03:01:30;10.82;;;7.63;;
7171;SDS011;3627;46.544;14.944;2023-03-24T03:04:00;10.48;;;8.93;;
7171;SDS011;3627;46.544;14.944;2023-03-24T03:06:29;9.60;;;8.48;;
7171;SDS011;3627;46.544;14.944;2023-03-24T03:08:56;13.80;;;8.90;;
7171;SDS011;3627;46.544;14.944;2023-03-24T03:11:24;12.02;;;8.40;;
7171;SDS011;3627;46.544;14.944;2023-03-24T03:13:52;13.13;;;8.98;;
7171;SDS011;3627;46.544;14.944;2023-03-24T03:16:21;13.63;;;9.27;;
7171;SDS011;3627;46.544;14.944;2023-03-24T03:18:50;11.85;;;9.23;;
7171;SDS011;3627;46.544;14.944;2023-03-24T03:21:19;15.25;;;9.52;;
7171;SDS011;3627;46.544;14.944;2023-03-24T03:23:48;13.30;;;9.25;;
7171;SDS011;3627;46.544;14.944;2023-03-24T03:26:17;10.57;;;9.00;;
7171;SDS011;3627;46.544;14.944;2023-03-24T03:28:49;13.00;;;8.43;;
7171;SDS011;3627;46.544;14.944;2023-03-24T03:31:23;15.68;;;9.43;;
7171;SDS011;3627;46.544;14.944;2023-03-24T03:33:55;13.10;;;9.02;;
7171;SDS011;3627;46.544;14.944;2023-03-24T03:36:25;10.85;;;9.02;;
7171;SDS011;3627;46.544;14.944;2023-03-24T03:38:54;12.68;;;9.25;;
7171;SDS011;3627;46.544;14.944;2023-03-24T03:41:22;12.85;;;8.38;;
7171;SDS011;3627;46.544;14.944;2023-03-24T03:43:49;10.95;;;8.50;;
7171;SDS011;3627;46.544;14.944;2023-03-24T03:46:15;10.75;;;7.68;;
7171;SDS011;3627;46.544;14.944;2023-03-24T03:48:44;8.68;;;7.18;;
7171;SDS011;3627;46.544;14.944;2023-03-24T03:51:11;10.15;;;8.52;;
7171;SDS011;3627;46.544;14.944;2023-03-24T03:53:39;10.73;;;7.97;;
7171;SDS011;3627;46.544;14.944;2023-03-24T03:56:09;10.88;;;8.77;;
7171;SDS011;3627;46.544;14.944;2023-03-24T03:58:35;11.48;;;8.25;;
7171;SDS011;3627;46.544;14.944;2023-03-24T04:01:03;12.45;;;8.45;;
7171;SDS011;3627;46.544;14.944;2023-03-24T04:03:38;12.90;;;9.10;;
7171;SDS011;3627;46.544;14.944;2023-03-24T04:06:10;12.43;;;8.80;;
7171;SDS011;3627;46.544;14.944;2023-03-24T04:08:43;12.63;;;9.25;;
7171;SDS011;3627;46.544;14.944;2023-03-24T04:14:04;11.30;;;9.18;;
7171;SDS011;3627;46.544;14.944;2023-03-24T04:16:36;10.63;;;8.25;;
7171;SDS011;3627;46.544;14.944;2023-03-24T04:19:12;12.10;;;8.30;;
7171;SDS011;3627;46.544;14.944;2023-03-24T04:21:46;12.00;;;8.15;;
7171;SDS011;3627;46.544;14.944;2023-03-24T04:24:18;10.27;;;8.32;;
7171;SDS011;3627;46.544;14.944;2023-03-24T04:26:51;12.43;;;8.65;;
7171;SDS011;3627;46.544;14.944;2023-03-24T04:29:19;21.05;;;10.07;;
7171;SDS011;3627;46.544;14.944;2023-03-24T04:31:50;22.00;;;10.52;;
7171;SDS011;3627;46.544;14.944;2023-03-24T04:34:18;22.48;;;11.40;;
7171;SDS011;3627;46.544;14.944;2023-03-24T04:36:48;17.15;;;11.13;;
7171;SDS011;3627;46.544;14.944;2023-03-24T04:39:19;18.75;;;11.18;;
7171;SDS011;3627;46.544;14.944;2023-03-24T04:41:49;10.50;;;8.30;;
7171;SDS011;3627;46.544;14.944;2023-03-24T04:44:16;13.80;;;9.05;;
7171;SDS011;3627;46.544;14.944;2023-03-24T04:46:45;14.27;;;9.82;;
7171;SDS011;3627;46.544;14.944;2023-03-24T04:49:12;14.18;;;8.93;;
7171;SDS011;3627;46.544;14.944;2023-03-24T04:51:38;14.05;;;8.82;;
7171;SDS011;3627;46.544;14.944;2023-03-24T04:54:06;15.07;;;9.68;;
7171;SDS011;3627;46.544;14.944;2023-03-24T04:56:37;16.67;;;9.40;;
7171;SDS011;3627;46.544;14.944;2023-03-24T04:59:04;13.88;;;9.80;;
7171;SDS011;3627;46.544;14.944;2023-03-24T05:01:32;17.65;;;11.35;;
7171;SDS011;3627;46.544;14.944;2023-03-24T05:04:01;18.30;;;9.98;;
7171;SDS011;3627;46.544;14.944;2023-03-24T05:06:28;15.05;;;10.20;;
7171;SDS011;3627;46.544;14.944;2023-03-24T05:08:55;16.27;;;10.27;;
7171;SDS011;3627;46.544;14.944;2023-03-24T05:11:24;16.27;;;9.70;;
7171;SDS011;3627;46.544;14.944;2023-03-24T05:13:51;15.15;;;9.57;;
7171;SDS011;3627;46.544;14.944;2023-03-24T05:16:17;13.82;;;9.30;;
7171;SDS011;3627;46.544;14.944;2023-03-24T05:18:44;15.25;;;10.02;;
7171;SDS011;3627;46.544;14.944;2023-03-24T05:21:10;19.27;;;11.35;;
7171;SDS011;3627;46.544;14.944;2023-03-24T05:23:37;19.30;;;11.18;;
7171;SDS011;3627;46.544;14.944;2023-03-24T05:26:03;15.93;;;11.13;;
7171;SDS011;3627;46.544;14.944;2023-03-24T05:28:31;17.20;;;10.98;;
7171;SDS011;3627;46.544;14.944;2023-03-24T05:30:57;15.93;;;10.85;;
7171;SDS011;3627;46.544;14.944;2023-03-24T05:33:24;17.90;;;10.45;;
7171;SDS011;3627;46.544;14.944;2023-03-24T05:35:50;13.23;;;9.55;;
7171;SDS011;3627;46.544;14.944;2023-03-24T05:38:17;11.05;;;7.10;;
7171;SDS011;3627;46.544;14.944;2023-03-24T05:43:09;9.15;;;7.38;;
7171;SDS011;3627;46.544;14.944;2023-03-24T05:45:37;8.27;;;6.50;;
7171;SDS011;3627;46.544;14.944;2023-03-24T05:48:04;9.68;;;7.13;;
7171;SDS011;3627;46.544;14.944;2023-03-24T05:50:30;7.72;;;6.93;;
7171;SDS011;3627;46.544;14.944;2023-03-24T05:52:57;11.50;;;8.50;;
7171;SDS011;3627;46.544;14.944;2023-03-24T05:55:23;18.92;;;10.25;;
7171;SDS011;3627;46.544;14.944;2023-03-24T05:57:50;19.27;;;11.73;;
7171;SDS011;3627;46.544;14.944;2023-03-24T06:00:16;17.20;;;11.55;;
7171;SDS011;3627;46.544;14.944;2023-03-24T06:02:45;17.42;;;11.20;;
7171;SDS011;3627;46.544;14.944;2023-03-24T06:05:12;21.77;;;9.88;;
7171;SDS011;3627;46.544;14.944;2023-03-24T06:07:38;13.93;;;9.90;;
7171;SDS011;3627;46.544;14.944;2023-03-24T06:10:06;15.05;;;9.77;;
7171;SDS011;3627;46.544;14.944;2023-03-24T06:12:33;10.32;;;8.02;;
7171;SDS011;3627;46.544;14.944;2023-03-24T06:15:00;12.93;;;8.05;;
7171;SDS011;3627;46.544;14.944;2023-03-24T06:17:27;11.35;;;8.10;;
7171;SDS011;3627;46.544;14.944;2023-03-24T06:19:55;11.18;;;8.13;;
7171;SDS011;3627;46.544;14.944;2023-03-24T06:22:28;15.90;;;9.30;;
7171;SDS011;3627;46.544;14.944;2023-03-24T06:24:56;10.93;;;8.15;;
7171;SDS011;3627;46.544;14.944;2023-03-24T06:27:22;10.85;;;8.50;;
7171;SDS011;3627;46.544;14.944;2023-03-24T06:29:50;11.55;;;7.18;;
7171;SDS011;3627;46.544;14.944;2023-03-24T06:32:17;18.45;;;8.95;;
7171;SDS011;3627;46.544;14.944;2023-03-24T06:34:43;28.02;;;14.43;;
7171;SDS011;3627;46.544;14.944;2023-03-24T06:37:11;43.03;;;19.05;;
7171;SDS011;3627;46.544;14.944;2023-03-24T06:39:37;26.08;;;13.13;;
7171;SDS011;3627;46.544;14.944;2023-03-24T06:42:04;17.95;;;8.82;;
7171;SDS011;3627;46.544;14.944;2023-03-24T06:44:31;19.52;;;10.20;;
7171;SDS011;3627;46.544;14.944;2023-03-24T06:46:57;19.60;;;9.80;;
7171;SDS011;3627;46.544;14.944;2023-03-24T06:49:23;18.92;;;9.73;;
7171;SDS011;3627;46.544;14.944;2023-03-24T06:51:50;18.58;;;8.77;;
7171;SDS011;3627;46.544;14.944;2023-03-24T06:54:18;14.77;;;8.77;;
7171;SDS011;3627;46.544;14.944;2023-03-24T06:56:44;16.08;;;7.60;;
7171;SDS011;3627;46.544;14.944;2023-03-24T06:59:10;13.98;;;7.45;;
7171;SDS011;3627;46.544;14.944;2023-03-24T07:01:37;12.82;;;7.25;;
7171;SDS011;3627;46.544;14.944;2023-03-24T07:04:04;8.95;;;6.15;;
7171;SDS011;3627;46.544;14.944;2023-03-24T07:06:30;8.23;;;6.03;;
7171;SDS011;3627;46.544;14.944;2023-03-24T07:08:58;8.55;;;6.47;;
7171;SDS011;3627;46.544;14.944;2023-03-24T07:11:26;9.32;;;5.75;;
7171;SDS011;3627;46.544;14.944;2023-03-24T07:13:53;8.70;;;6.07;;
7171;SDS011;3627;46.544;14.944;2023-03-24T07:16:19;13.18;;;7.15;;
7171;SDS011;3627;46.544;14.944;2023-03-24T07:18:45;13.30;;;7.85;;
7171;SDS011;3627;46.544;14.944;2023-03-24T07:21:12;15.13;;;7.68;;
7171;SDS011;3627;46.544;14.944;2023-03-24T07:23:38;11.35;;;7.75;;
7171;SDS011;3627;46.544;14.944;2023-03-24T07:26:04;13.73;;;7.28;;
7171;SDS011;3627;46.544;14.944;2023-03-24T07:28:32;12.57;;;7.05;;
7171;SDS011;3627;46.544;14.944;2023-03-24T07:31:00;10.77;;;7.60;;
7171;SDS011;3627;46.544;14.944;2023-03-24T07:33:27;11.10;;;7.25;;
7171;SDS011;3627;46.544;14.944;2023-03-24T07:35:53;12.55;;;7.43;;
7171;SDS011;3627;46.544;14.944;2023-03-24T07:38:21;18.33;;;8.25;;
7171;SDS011;3627;46.544;14.944;2023-03-24T07:40:47;15.93;;;8.05;;
7171;SDS011;3627;46.544;14.944;2023-03-24T07:43:13;14.10;;;7.97;;
7171;SDS011;3627;46.544;14.944;2023-03-24T07:45:44;14.07;;;7.28;;
7171;SDS011;3627;46.544;14.944;2023-03-24T07:48:10;22.35;;;7.53;;
7171;SDS011;3627;46.544;14.944;2023-03-24T07:50:37;11.93;;;6.95;;
7171;SDS011;3627;46.544;14.944;2023-03-24T07:53:04;8.95;;;6.63;;
7171;SDS011;3627;46.544;14.944;2023-03-24T07:55:33;11.60;;;7.22;;
7171;SDS011;3627;46.544;14.944;2023-03-24T07:58:00;12.25;;;8.73;;
7171;SDS011;3627;46.544;14.944;2023-03-24T08:00:26;14.45;;;8.15;;
7171;SDS011;3627;46.544;14.944;2023-03-24T08:02:54;18.88;;;8.65;;
7171;SDS011;3627;46.544;14.944;2023-03-24T08:05:21;15.32;;;7.60;;
7171;SDS011;3627;46.544;14.944;2023-03-24T08:07:49;16.80;;;8.18;;
7171;SDS011;3627;46.544;14.944;2023-03-24T08:10:17;15.80;;;8.13;;
7171;SDS011;3627;46.544;14.944;2023-03-24T08:12:44;13.73;;;8.70;;
7171;SDS011;3627;46.544;14.944;2023-03-24T08:15:11;11.82;;;8.27;;
7171;SDS011;3627;46.544;14.944;2023-03-24T08:17:37;15.13;;;8.20;;
7171;SDS011;3627;46.544;14.944;2023-03-24T08:20:06;14.88;;;8.20;;
7171;SDS011;3627;46.544;14.944;2023-03-24T08:22:36;13.55;;;8.73;;
7171;SDS011;3627;46.544;14.944;2023-03-24T08:25:03;24.00;;;11.50;;
7171;SDS011;3627;46.544;14.944;2023-03-24T08:27:30;25.98;;;12.85;;
7171;SDS011;3627;46.544;14.944;2023-03-24T08:29:56;20.27;;;12.10;;
7171;SDS011;3627;46.544;14.944;2023-03-24T08:32:23;18.90;;;11.00;;
7171;SDS011;3627;46.544;14.944;2023-03-24T08:34:49;14.38;;;8.75;;
7171;SDS011;3627;46.544;14.944;2023-03-24T08:37:17;16.05;;;9.93;;
7171;SDS011;3627;46.544;14.944;2023-03-24T08:39:43;12.77;;;9.25;;
7171;SDS011;3627;46.544;14.944;2023-03-24T08:42:10;14.55;;;9.82;;
7171;SDS011;3627;46.544;14.944;2023-03-24T08:44:36;9.60;;;8.35;;
7171;SDS011;3627;46.544;14.944;2023-03-24T08:47:02;15.10;;;9.13;;
7171;SDS011;3627;46.544;14.944;2023-03-24T08:49:29;11.82;;;7.80;;
7171;SDS011;3627;46.544;14.944;2023-03-24T08:51:55;12.75;;;8.25;;
7171;SDS011;3627;46.544;14.944;2023-03-24T08:54:23;10.80;;;7.78;;
7171;SDS011;3627;46.544;14.944;2023-03-24T08:56:50;9.95;;;8.93;;
7171;SDS011;3627;46.544;14.944;2023-03-24T08:59:16;12.10;;;8.40;;
7171;SDS011;3627;46.544;14.944;2023-03-24T09:01:43;10.55;;;8.75;;
7171;SDS011;3627;46.544;14.944;2023-03-24T09:04:09;9.98;;;8.13;;
7171;SDS011;3627;46.544;14.944;2023-03-24T09:06:36;11.80;;;8.25;;
7171;SDS011;3627;46.544;14.944;2023-03-24T09:09:02;9.15;;;8.25;;
7171;SDS011;3627;46.544;14.944;2023-03-24T09:11:30;10.68;;;8.00;;
7171;SDS011;3627;46.544;14.944;2023-03-24T09:13:56;10.80;;;7.78;;
7171;SDS011;3627;46.544;14.944;2023-03-24T09:16:23;9.45;;;8.02;;
7171;SDS011;3627;46.544;14.944;2023-03-24T09:18:50;11.85;;;9.00;;
7171;SDS011;3627;46.544;14.944;2023-03-24T09:21:17;11.35;;;9.23;;
7171;SDS011;3627;46.544;14.944;2023-03-24T09:23:43;10.70;;;9.13;;
7171;SDS011;3627;46.544;14.944;2023-03-24T09:26:09;10.32;;;8.63;;
7171;SDS011;3627;46.544;14.944;2023-03-24T09:28:37;10.00;;;8.85;;
7171;SDS011;3627;46.544;14.944;2023-03-24T09:31:04;11.07;;;9.73;;
7171;SDS011;3627;46.544;14.944;2023-03-24T09:33:31;9.85;;;8.38;;
7171;SDS011;3627;46.544;14.944;2023-03-24T09:35:59;10.23;;;8.35;;
7171;SDS011;3627;46.544;14.944;2023-03-24T09:38:26;8.95;;;7.68;;
7171;SDS011;3627;46.544;14.944;2023-03-24T09:40:54;10.13;;;8.13;;
7171;SDS011;3627;46.544;14.944;2023-03-24T09:43:23;9.75;;;8.45;;
7171;SDS011;3627;46.544;14.944;2023-03-24T09:45:53;11.60;;;8.68;;
7171;SDS011;3627;46.544;14.944;2023-03-24T09:48:23;9.77;;;7.72;;
7171;SDS011;3627;46.544;14.944;2023-03-24T09:50:52;11.10;;;7.45;;
7171;SDS011;3627;46.544;14.944;2023-03-24T09:53:23;10.85;;;8.20;;
7171;SDS011;3627;46.544;14.944;2023-03-24T09:55:53;11.07;;;8.57;;
7171;SDS011;3627;46.544;14.944;2023-03-24T09:58:19;10.02;;;7.90;;
7171;SDS011;3627;46.544;14.944;2023-03-24T10:00:46;10.15;;;8.40;;
7171;SDS011;3627;46.544;14.944;2023-03-24T10:03:15;10.40;;;7.63;;
7171;SDS011;3627;46.544;14.944;2023-03-24T10:05:46;9.90;;;7.70;;
7171;SDS011;3627;46.544;14.944;2023-03-24T10:08:16;16.65;;;8.32;;
7171;SDS011;3627;46.544;14.944;2023-03-24T10:10:47;9.80;;;7.32;;
7171;SDS011;3627;46.544;14.944;2023-03-24T10:13:17;8.80;;;7.18;;
7171;SDS011;3627;46.544;14.944;2023-03-24T10:15:46;20.00;;;11.93;;
7171;SDS011;3627;46.544;14.944;2023-03-24T10:18:21;13.90;;;10.27;;
7171;SDS011;3627;46.544;14.944;2023-03-24T10:20:50;10.05;;;7.05;;
7171;SDS011;3627;46.544;14.944;2023-03-24T10:23:19;9.85;;;7.53;;
7171;SDS011;3627;46.544;14.944;2023-03-24T10:25:50;9.52;;;7.03;;
7171;SDS011;3627;46.544;14.944;2023-03-24T10:28:18;12.85;;;7.65;;
7171;SDS011;3627;46.544;14.944;2023-03-24T10:30:45;8.50;;;6.78;;
7171;SDS011;3627;46.544;14.944;2023-03-24T10:33:12;8.88;;;6.50;;
7171;SDS011;3627;46.544;14.944;2023-03-24T10:35:40;12.30;;;7.28;;
7171;SDS011;3627;46.544;14.944;2023-03-24T10:38:10;8.50;;;6.90;;
7171;SDS011;3627;46.544;14.944;2023-03-24T10:40:38;7.30;;;6.45;;
7171;SDS011;3627;46.544;14.944;2023-03-24T10:43:05;8.02;;;7.20;;
7171;SDS011;3627;46.544;14.944;2023-03-24T10:45:32;9.77;;;7.82;;
7171;SDS011;3627;46.544;14.944;2023-03-24T10:48:00;10.73;;;7.55;;
7171;SDS011;3627;46.544;14.944;2023-03-24T10:50:28;9.55;;;7.18;;
7171;SDS011;3627;46.544;14.944;2023-03-24T10:52:56;11.43;;;6.78;;
7171;SDS011;3627;46.544;14.944;2023-03-24T10:55:23;11.13;;;6.75;;
7171;SDS011;3627;46.544;14.944;2023-03-24T10:57:56;9.82;;;7.13;;
7171;SDS011;3627;46.544;14.944;2023-03-24T11:00:23;8.30;;;6.70;;
7171;SDS011;3627;46.544;14.944;2023-03-24T11:02:54;7.50;;;6.35;;
7171;SDS011;3627;46.544;14.944;2023-03-24T11:05:25;9.82;;;6.68;;
7171;SDS011;3627;46.544;14.944;2023-03-24T11:07:53;9.73;;;7.25;;
7171;SDS011;3627;46.544;14.944;2023-03-24T11:10:25;11.05;;;6.80;;
7171;SDS011;3627;46.544;14.944;2023-03-24T11:12:58;9.93;;;6.43;;
7171;SDS011;3627;46.544;14.944;2023-03-24T11:15:27;10.10;;;7.68;;
7171;SDS011;3627;46.544;14.944;2023-03-24T11:17:55;9.65;;;7.60;;
7171;SDS011;3627;46.544;14.944;2023-03-24T11:20:24;8.75;;;7.28;;
7171;SDS011;3627;46.544;14.944;2023-03-24T11:23:01;10.10;;;8.05;;
7171;SDS011;3627;46.544;14.944;2023-03-24T11:25:30;9.73;;;8.20;;
7171;SDS011;3627;46.544;14.944;2023-03-24T11:27:58;10.02;;;7.20;;
7171;SDS011;3627;46.544;14.944;2023-03-24T11:30:25;8.93;;;7.35;;
7171;SDS011;3627;46.544;14.944;2023-03-24T11:32:52;7.85;;;6.55;;
7171;SDS011;3627;46.544;14.944;2023-03-24T11:35:19;10.35;;;8.02;;
7171;SDS011;3627;46.544;14.944;2023-03-24T11:37:46;9.93;;;7.68;;
7171;SDS011;3627;46.544;14.944;2023-03-24T11:40:17;11.63;;;8.02;;
7171;SDS011;3627;46.544;14.944;2023-03-24T11:42:46;10.05;;;8.23;;
7171;SDS011;3627;46.544;14.944;2023-03-24T11:45:19;11.50;;;7.97;;
7171;SDS011;3627;46.544;14.944;2023-03-24T11:47:46;10.45;;;7.72;;
7171;SDS011;3627;46.544;14.944;2023-03-24T11:50:13;11.52;;;7.82;;
7171;SDS011;3627;46.544;14.944;2023-03-24T11:52:42;26.60;;;18.40;;
7171;SDS011;3627;46.544;14.944;2023-03-24T11:55:12;16.95;;;14.38;;
7171;SDS011;3627;46.544;14.944;2023-03-24T11:57:42;11.60;;;8.90;;
7171;SDS011;3627;46.544;14.944;2023-03-24T12:00:13;13.77;;;8.27;;
7171;SDS011;3627;46.544;14.944;2023-03-24T12:02:45;11.65;;;8.70;;
7171;SDS011;3627;46.544;14.944;2023-03-24T12:05:18;9.68;;;7.20;;
7171;SDS011;3627;46.544;14.944;2023-03-24T12:07:52;8.90;;;7.07;;
7171;SDS011;3627;46.544;14.944;2023-03-24T12:10:27;10.25;;;6.88;;
7171;SDS011;3627;46.544;14.944;2023-03-24T12:12:58;8.25;;;6.53;;
7171;SDS011;3627;46.544;14.944;2023-03-24T12:15:33;9.65;;;6.57;;
7171;SDS011;3627;46.544;14.944;2023-03-24T12:18:09;8.52;;;6.43;;
7171;SDS011;3627;46.544;14.944;2023-03-24T12:20:39;7.35;;;6.45;;
7171;SDS011;3627;46.544;14.944;2023-03-24T12:23:10;15.05;;;7.60;;
7171;SDS011;3627;46.544;14.944;2023-03-24T12:28:29;7.25;;;6.45;;
7171;SDS011;3627;46.544;14.944;2023-03-24T12:31:01;7.50;;;6.72;;
7171;SDS011;3627;46.544;14.944;2023-03-24T12:33:33;8.75;;;6.28;;
7171;SDS011;3627;46.544;14.944;2023-03-24T12:36:08;9.57;;;7.68;;
7171;SDS011;3627;46.544;14.944;2023-03-24T12:38:39;8.25;;;6.80;;
7171;SDS011;3627;46.544;14.944;2023-03-24T12:43:56;13.10;;;7.28;;
7171;SDS011;3627;46.544;14.944;2023-03-24T12:46:31;10.55;;;7.22;;
7171;SDS011;3627;46.544;14.944;2023-03-24T12:49:01;22.13;;;7.97;;
7171;SDS011;3627;46.544;14.944;2023-03-24T12:51:36;8.38;;;6.97;;
7171;SDS011;3627;46.544;14.944;2023-03-24T12:54:11;9.68;;;6.50;;
7171;SDS011;3627;46.544;14.944;2023-03-24T12:56:42;9.38;;;6.55;;
7171;SDS011;3627;46.544;14.944;2023-03-24T12:59:12;9.38;;;7.00;;
7171;SDS011;3627;46.544;14.944;2023-03-24T13:01:41;9.18;;;6.88;;
7171;SDS011;3627;46.544;14.944;2023-03-24T13:04:09;10.75;;;6.68;;
7171;SDS011;3627;46.544;14.944;2023-03-24T13:06:37;10.40;;;6.53;;
7171;SDS011;3627;46.544;14.944;2023-03-24T13:09:08;7.15;;;6.43;;
7171;SDS011;3627;46.544;14.944;2023-03-24T13:11:37;7.47;;;6.47;;
7171;SDS011;3627;46.544;14.944;2023-03-24T13:14:05;10.27;;;6.15;;
7171;SDS011;3627;46.544;14.944;2023-03-24T13:16:36;8.82;;;6.97;;
7171;SDS011;3627;46.544;14.944;2023-03-24T13:19:04;9.40;;;6.38;;
7171;SDS011;3627;46.544;14.944;2023-03-24T13:21:37;8.93;;;6.25;;
7171;SDS011;3627;46.544;14.944;2023-03-24T13:24:04;7.15;;;6.22;;
7171;SDS011;3627;46.544;14.944;2023-03-24T13:26:35;7.65;;;6.07;;
7171;SDS011;3627;46.544;14.944;2023-03-24T13:29:06;10.05;;;6.40;;
7171;SDS011;3627;46.544;14.944;2023-03-24T13:31:37;6.68;;;5.35;;
7171;SDS011;3627;46.544;14.944;2023-03-24T13:34:10;7.78;;;5.10;;
7171;SDS011;3627;46.544;14.944;2023-03-24T13:36:41;8.77;;;6.05;;
7171;SDS011;3627;46.544;14.944;2023-03-24T13:39:11;7.47;;;5.80;;
7171;SDS011;3627;46.544;14.944;2023-03-24T13:41:39;7.53;;;5.43;;
7171;SDS011;3627;46.544;14.944;2023-03-24T13:44:06;6.43;;;4.88;;
7171;SDS011;3627;46.544;14.944;2023-03-24T13:46:34;7.38;;;5.50;;
7171;SDS011;3627;46.544;14.944;2023-03-24T13:49:02;9.00;;;5.72;;
7171;SDS011;3627;46.544;14.944;2023-03-24T13:51:32;10.43;;;4.97;;
7171;SDS011;3627;46.544;14.944;2023-03-24T13:53:59;5.80;;;4.18;;
7171;SDS011;3627;46.544;14.944;2023-03-24T13:56:30;9.10;;;4.70;;
7171;SDS011;3627;46.544;14.944;2023-03-24T13:59:05;7.38;;;4.95;;
7171;SDS011;3627;46.544;14.944;2023-03-24T14:01:33;5.43;;;4.90;;
7171;SDS011;3627;46.544;14.944;2023-03-24T14:06:46;10.98;;;5.80;;
7171;SDS011;3627;46.544;14.944;2023-03-24T14:09:14;10.88;;;5.03;;
7171;SDS011;3627;46.544;14.944;2023-03-24T14:11:47;16.35;;;8.07;;
7171;SDS011;3627;46.544;14.944;2023-03-24T14:14:18;11.52;;;5.45;;
7171;SDS011;3627;46.544;14.944;2023-03-24T14:16:48;8.45;;;4.63;;
7171;SDS011;3627;46.544;14.944;2023-03-24T14:19:20;6.25;;;4.80;;
7171;SDS011;3627;46.544;14.944;2023-03-24T14:21:52;12.10;;;5.50;;
7171;SDS011;3627;46.544;14.944;2023-03-24T14:24:21;11.57;;;4.43;;
7171;SDS011;3627;46.544;14.944;2023-03-24T14:26:48;7.13;;;4.45;;
7171;SDS011;3627;46.544;14.944;2023-03-24T14:31:57;7.10;;;5.07;;
7171;SDS011;3627;46.544;14.944;2023-03-24T14:34:26;5.60;;;4.25;;
7171;SDS011;3627;46.544;14.944;2023-03-24T14:36:57;10.38;;;5.00;;
7171;SDS011;3627;46.544;14.944;2023-03-24T14:39:26;8.52;;;5.47;;
7171;SDS011;3627;46.544;14.944;2023-03-24T14:41:53;9.55;;;6.60;;
7171;SDS011;3627;46.544;14.944;2023-03-24T14:47:04;14.00;;;6.68;;
7171;SDS011;3627;46.544;14.944;2023-03-24T14:49:30;10.20;;;4.95;;
7171;SDS011;3627;46.544;14.944;2023-03-24T14:52:00;10.23;;;4.78;;
7171;SDS011;3627;46.544;14.944;2023-03-24T14:54:31;6.53;;;3.92;;
7171;SDS011;3627;46.544;14.944;2023-03-24T14:56:59;8.85;;;4.18;;
7171;SDS011;3627;46.544;14.944;2023-03-24T14:59:34;6.60;;;4.55;;
7171;SDS011;3627;46.544;14.944;2023-03-24T15:02:02;6.20;;;5.22;;
7171;SDS011;3627;46.544;14.944;2023-03-24T15:04:30;10.45;;;5.63;;
7171;SDS011;3627;46.544;14.944;2023-03-24T15:07:04;5.07;;;4.20;;
7171;SDS011;3627;46.544;14.944;2023-03-24T15:09:34;4.20;;;3.67;;
7171;SDS011;3627;46.544;14.944;2023-03-24T15:12:01;4.93;;;3.10;;
7171;SDS011;3627;46.544;14.944;2023-03-24T15:14:27;5.63;;;4.10;;
7171;SDS011;3627;46.544;14.944;2023-03-24T15:16:54;7.53;;;4.93;;
7171;SDS011;3627;46.544;14.944;2023-03-24T15:19:22;5.60;;;5.00;;
7171;SDS011;3627;46.544;14.944;2023-03-24T15:21:51;6.35;;;4.63;;
7171;SDS011;3627;46.544;14.944;2023-03-24T15:24:27;6.47;;;4.40;;